In Rescue
 
Open Full Screen Window  High Contrast Mode
July 14, 2020 12:18 AM EDT
Weather Information
Wind Direction
  ---
Wind Speed
  00 kt (0 mph)
Wind Gust
  00 kt (0 mph)
Altimeter
30.02 in
Visibility
10 SM
Temperature
14° C
57° F
Dewpoint
11° C
52° F
Humidity
82%
Sky Condition
Clear
VFR

METAR KPZQ 140418Z AUTO 00000KT 10SM CLR 14/11 A3002 RMK AO2 T01410112

FAA Disclaimer: The data displayed is for advisory purposes only and is not to be used for flight planning or operations.